createdAt,value
2017-08-23T00:00:23.398Z,16.87
2017-08-23T00:02:50.996Z,16.20
2017-08-23T00:05:18.720Z,17.77
2017-08-23T00:07:46.386Z,17.20
2017-08-23T00:10:14.233Z,16.87
2017-08-23T00:12:41.827Z,17.40
2017-08-23T00:15:09.336Z,15.70
2017-08-23T00:17:36.827Z,17.93
2017-08-23T00:20:04.602Z,17.93
2017-08-23T00:22:32.150Z,18.60
2017-08-23T00:25:28.752Z,17.30
2017-08-23T00:27:56.268Z,17.87
2017-08-23T00:30:23.860Z,16.93
2017-08-23T00:32:51.334Z,16.40
2017-08-23T00:35:19.201Z,16.67
2017-08-23T00:37:46.917Z,17.37
2017-08-23T00:40:14.471Z,16.67
2017-08-23T00:42:42.030Z,18.10
2017-08-23T00:45:09.687Z,16.03
2017-08-23T00:47:37.399Z,15.23
2017-08-23T00:50:05.972Z,16.13
2017-08-23T00:52:33.559Z,15.87
2017-08-23T00:55:01.202Z,15.27
2017-08-23T00:57:28.775Z,15.60
2017-08-23T00:59:56.445Z,15.87
2017-08-23T01:02:23.930Z,16.60
2017-08-23T01:04:51.403Z,16.20
2017-08-23T01:07:18.905Z,16.33
2017-08-23T01:09:46.555Z,16.67
2017-08-23T01:12:14.156Z,16.63
2017-08-23T01:14:43.344Z,16.30
2017-08-23T01:17:10.970Z,18.60
2017-08-23T01:19:38.700Z,16.60
2017-08-23T01:22:06.350Z,17.00
2017-08-23T01:24:33.871Z,17.67
2017-08-23T01:27:01.476Z,16.47
2017-08-23T01:29:29.219Z,16.10
2017-08-23T01:31:56.720Z,15.93
2017-08-23T01:34:24.408Z,15.73
2017-08-23T01:36:52.180Z,16.03
2017-08-23T01:39:19.856Z,15.10
2017-08-23T01:41:47.502Z,15.23
2017-08-23T01:44:15.134Z,15.97
2017-08-23T01:46:42.629Z,14.83
2017-08-23T01:49:10.362Z,15.67
2017-08-23T01:51:37.885Z,15.07
2017-08-23T01:54:05.397Z,15.53
2017-08-23T01:56:33.044Z,15.00
2017-08-23T01:59:00.613Z,14.87
2017-08-23T02:01:28.076Z,14.20
2017-08-23T02:03:55.649Z,14.43
2017-08-23T02:06:23.262Z,15.03
2017-08-23T02:08:50.818Z,14.37
2017-08-23T02:11:18.566Z,13.80
2017-08-23T02:13:46.062Z,15.90
2017-08-23T02:16:14.671Z,14.90
2017-08-23T02:18:42.132Z,16.63
2017-08-23T02:21:10.523Z,20.40
2017-08-23T02:23:38.175Z,17.20
2017-08-23T02:26:06.462Z,17.27
2017-08-23T02:28:34.725Z,16.20
2017-08-23T02:31:02.562Z,15.63
2017-08-23T02:33:30.044Z,15.03
2017-08-23T02:35:57.728Z,14.33
2017-08-23T02:38:25.279Z,14.90
2017-08-23T02:40:52.728Z,15.13
2017-08-23T02:43:20.437Z,15.30
2017-08-23T02:45:48.127Z,14.60
2017-08-23T02:48:15.830Z,15.67
2017-08-23T02:50:43.699Z,15.43
2017-08-23T02:53:12.011Z,15.40
2017-08-23T02:55:39.630Z,14.33
2017-08-23T02:58:07.296Z,14.40
2017-08-23T03:00:34.948Z,15.33
2017-08-23T03:03:03.345Z,15.23
2017-08-23T03:05:31.607Z,16.30
2017-08-23T03:07:59.881Z,15.30
2017-08-23T03:10:28.413Z,15.17
2017-08-23T03:12:56.116Z,15.10
2017-08-23T03:15:23.687Z,15.33
2017-08-23T03:17:51.368Z,15.90
2017-08-23T03:20:19.115Z,15.77
2017-08-23T03:22:46.616Z,15.63
2017-08-23T03:25:14.146Z,15.00
2017-08-23T03:27:41.868Z,15.33
2017-08-23T03:30:09.681Z,14.67
2017-08-23T03:32:37.574Z,15.17
2017-08-23T03:35:05.183Z,15.13
2017-08-23T03:37:32.742Z,16.33
2017-08-23T03:40:00.265Z,14.30
2017-08-23T03:42:27.832Z,15.10
2017-08-23T03:44:56.247Z,15.37
2017-08-23T03:47:23.810Z,15.30
2017-08-23T03:49:52.172Z,15.27
2017-08-23T03:52:19.711Z,15.50
2017-08-23T03:54:47.203Z,15.20
2017-08-23T03:57:15.466Z,16.30
2017-08-23T03:59:42.930Z,15.67
2017-08-23T04:02:10.487Z,16.63
2017-08-23T04:04:38.015Z,15.17
2017-08-23T04:07:05.512Z,15.60
2017-08-23T04:09:33.126Z,16.70
2017-08-23T04:12:00.899Z,15.40
2017-08-23T04:14:28.396Z,15.50
2017-08-23T04:16:55.951Z,17.03
2017-08-23T04:19:24.375Z,18.00
2017-08-23T04:21:51.858Z,15.87
2017-08-23T04:24:19.535Z,15.30
2017-08-23T04:26:47.082Z,16.30
2017-08-23T04:29:14.546Z,14.40
2017-08-23T04:31:42.031Z,16.50
2017-08-23T04:34:09.617Z,15.27
2017-08-23T04:36:37.127Z,15.70
2017-08-23T04:39:04.615Z,14.37
2017-08-23T04:41:32.149Z,15.30
2017-08-23T04:43:59.630Z,15.17
2017-08-23T04:46:27.110Z,16.00
2017-08-23T04:48:54.629Z,16.30
2017-08-23T04:51:22.159Z,16.13
2017-08-23T04:53:49.738Z,17.10
2017-08-23T04:56:17.272Z,15.60
2017-08-23T04:58:44.724Z,15.90
2017-08-23T05:01:12.224Z,15.50
2017-08-23T05:03:39.753Z,15.47
2017-08-23T05:06:07.346Z,15.97
2017-08-23T05:08:34.853Z,15.87
2017-08-23T05:11:03.321Z,14.57
2017-08-23T05:13:30.792Z,16.97
2017-08-23T05:15:58.367Z,16.13
2017-08-23T05:18:26.448Z,16.57
2017-08-23T05:20:54.073Z,15.00
2017-08-23T05:23:21.548Z,16.00
2017-08-23T05:25:49.256Z,14.63
2017-08-23T05:28:16.754Z,14.80
2017-08-23T05:30:44.234Z,15.20
2017-08-23T05:33:11.904Z,16.53
2017-08-23T05:35:39.489Z,14.70
2017-08-23T05:38:07.119Z,15.40
2017-08-23T05:40:34.957Z,14.97
2017-08-23T05:43:02.636Z,14.73
2017-08-23T05:45:30.103Z,14.10
2017-08-23T05:47:57.751Z,15.13
2017-08-23T05:50:25.562Z,14.37
2017-08-23T05:52:53.123Z,13.87
2017-08-23T05:55:20.640Z,13.83
2017-08-23T05:57:48.212Z,14.50
2017-08-23T06:00:15.808Z,13.50
2017-08-23T06:02:43.624Z,14.40
2017-08-23T06:05:11.183Z,13.33
2017-08-23T06:07:38.661Z,13.20
2017-08-23T06:10:06.194Z,12.80
2017-08-23T06:12:33.851Z,13.23
2017-08-23T06:15:01.429Z,13.40
2017-08-23T06:17:29.075Z,13.77
2017-08-23T06:19:56.871Z,13.20
2017-08-23T06:22:24.682Z,12.93
2017-08-23T06:24:52.564Z,13.50
2017-08-23T06:27:20.095Z,13.10
2017-08-23T06:29:47.600Z,11.70
2017-08-23T06:32:15.123Z,12.60
2017-08-23T06:34:42.729Z,11.57
2017-08-23T06:37:10.426Z,11.77
2017-08-23T06:39:37.932Z,12.80
2017-08-23T06:42:05.498Z,13.23
2017-08-23T06:44:33.148Z,11.43
2017-08-23T06:47:00.677Z,11.90
2017-08-23T06:49:28.296Z,13.27
2017-08-23T06:51:55.933Z,12.17
2017-08-23T06:54:23.506Z,12.30
2017-08-23T06:56:51.167Z,11.90
2017-08-23T06:59:18.631Z,10.90
2017-08-23T07:01:46.274Z,10.23
2017-08-23T07:04:14.080Z,9.60
2017-08-23T07:06:41.699Z,10.00
2017-08-23T07:09:09.189Z,9.43
2017-08-23T07:11:36.655Z,9.90
2017-08-23T07:14:04.292Z,9.67
2017-08-23T07:16:31.819Z,9.90
2017-08-23T07:18:59.314Z,9.53
2017-08-23T07:21:26.853Z,9.33
2017-08-23T07:23:54.653Z,9.50
2017-08-23T07:26:22.211Z,9.27
2017-08-23T07:28:49.731Z,9.17
2017-08-23T07:31:17.294Z,9.40
2017-08-23T07:33:44.959Z,9.50
2017-08-23T07:36:12.696Z,9.13
2017-08-23T07:38:40.190Z,8.90
2017-08-23T07:41:07.754Z,10.60
2017-08-23T07:43:36.125Z,9.00
2017-08-23T07:46:03.795Z,9.93
2017-08-23T07:48:31.337Z,9.70
2017-08-23T07:50:58.919Z,9.90
2017-08-23T07:53:26.579Z,9.63
2017-08-23T07:55:54.124Z,9.43
2017-08-23T07:58:21.910Z,9.00
2017-08-23T08:00:49.432Z,9.00
2017-08-23T08:03:16.991Z,9.90
2017-08-23T08:05:45.227Z,9.37
2017-08-23T08:08:14.252Z,11.63
2017-08-23T08:10:41.955Z,10.30
2017-08-23T08:13:10.319Z,9.40
2017-08-23T08:15:37.956Z,10.53
2017-08-23T08:18:05.415Z,9.57
2017-08-23T08:20:33.110Z,8.80
2017-08-23T08:23:00.628Z,9.10
2017-08-23T08:25:28.430Z,9.27
2017-08-23T08:27:55.986Z,9.50
2017-08-23T08:30:23.522Z,8.30
2017-08-23T08:32:51.019Z,9.07
2017-08-23T08:35:18.589Z,7.93
2017-08-23T08:37:46.241Z,8.90
2017-08-23T08:40:13.788Z,8.37
2017-08-23T08:42:41.215Z,9.10
2017-08-23T08:45:08.982Z,8.73
2017-08-23T08:47:37.434Z,8.60
2017-08-23T08:50:05.040Z,7.50
2017-08-23T08:52:32.543Z,7.60
2017-08-23T08:55:00.946Z,8.17
2017-08-23T08:57:28.444Z,7.80
2017-08-23T08:59:56.126Z,7.27
2017-08-23T09:02:23.850Z,8.20
2017-08-23T09:04:51.444Z,7.60
2017-08-23T09:07:19.207Z,8.67
2017-08-23T09:09:46.822Z,7.50
2017-08-23T09:12:14.327Z,6.57
2017-08-23T09:14:41.959Z,8.00
2017-08-23T09:17:09.671Z,7.30
2017-08-23T09:19:37.164Z,6.83
2017-08-23T09:22:04.796Z,7.70
2017-08-23T09:24:32.649Z,7.17
2017-08-23T09:27:00.279Z,6.40
2017-08-23T09:29:27.759Z,8.40
2017-08-23T09:31:55.327Z,8.00
2017-08-23T09:34:22.886Z,7.03
2017-08-23T09:36:50.559Z,8.07
2017-08-23T09:39:18.874Z,7.13
2017-08-23T09:41:46.372Z,8.07
2017-08-23T09:44:14.036Z,7.60
2017-08-23T09:46:41.567Z,6.53
2017-08-23T09:49:09.429Z,5.93
2017-08-23T09:51:37.134Z,7.17
2017-08-23T09:54:05.461Z,6.50
2017-08-23T09:56:33.440Z,7.73
2017-08-23T09:59:00.951Z,5.30
2017-08-23T10:01:29.589Z,4.80
2017-08-23T10:03:57.086Z,6.37
2017-08-23T10:06:25.671Z,5.40
2017-08-23T10:08:53.282Z,5.20
2017-08-23T10:11:21.112Z,4.90
2017-08-23T10:13:48.656Z,4.60
2017-08-23T10:16:16.264Z,4.50
2017-08-23T10:18:44.811Z,4.47
2017-08-23T10:21:12.556Z,7.70
2017-08-23T10:23:40.936Z,7.03
2017-08-23T10:26:08.820Z,5.30
2017-08-23T10:28:37.118Z,6.43
2017-08-23T10:31:04.982Z,5.10
2017-08-23T10:33:32.720Z,5.20
2017-08-23T10:36:00.491Z,4.90
2017-08-23T10:38:28.735Z,4.00
2017-08-23T10:40:57.454Z,5.40
2017-08-23T10:43:25.803Z,4.87
2017-08-23T10:45:53.611Z,5.70
2017-08-23T10:48:21.299Z,5.10
2017-08-23T10:50:49.106Z,3.93
2017-08-23T10:53:16.728Z,5.80
2017-08-23T10:55:44.528Z,3.67
2017-08-23T10:58:12.341Z,3.80
2017-08-23T11:00:39.947Z,3.50
2017-08-23T11:03:07.548Z,3.93
2017-08-23T11:05:35.214Z,4.00
2017-08-23T11:08:02.964Z,4.00
2017-08-23T11:10:30.606Z,4.40
2017-08-23T11:12:58.686Z,4.70
2017-08-23T11:15:26.486Z,6.47
2017-08-23T11:17:54.952Z,4.50
2017-08-23T11:20:23.014Z,4.60
2017-08-23T11:22:50.495Z,4.00
2017-08-23T11:25:18.219Z,4.93
2017-08-23T11:27:45.943Z,5.43
2017-08-23T11:30:14.393Z,5.43
2017-08-23T11:32:42.735Z,5.13
2017-08-23T11:35:10.398Z,6.20
2017-08-23T11:37:38.188Z,4.50
2017-08-23T11:40:05.845Z,4.27
2017-08-23T11:42:33.468Z,5.43
2017-08-23T11:45:01.024Z,5.07
2017-08-23T11:47:28.684Z,4.80
2017-08-23T11:49:56.295Z,5.10
2017-08-23T11:52:23.879Z,5.10
2017-08-23T11:54:52.131Z,5.13
2017-08-23T11:57:19.895Z,5.20
2017-08-23T11:59:48.222Z,5.13
2017-08-23T12:02:16.541Z,4.80
2017-08-23T12:04:44.938Z,4.97
2017-08-23T12:07:12.576Z,6.10
2017-08-23T12:09:40.173Z,5.00
2017-08-23T12:12:08.336Z,5.40
2017-08-23T12:14:36.752Z,5.30
2017-08-23T12:17:04.793Z,4.90
2017-08-23T12:19:32.463Z,5.63
2017-08-23T12:22:00.143Z,5.20
2017-08-23T12:24:27.729Z,4.90
2017-08-23T12:26:58.378Z,4.90
2017-08-23T12:29:26.839Z,5.17
2017-08-23T12:31:54.325Z,6.40
2017-08-23T12:34:21.946Z,5.30
2017-08-23T12:36:49.447Z,5.27
2017-08-23T12:39:17.759Z,5.43
2017-08-23T12:41:45.667Z,5.27
2017-08-23T12:44:13.153Z,5.20
2017-08-23T12:46:40.603Z,5.67
2017-08-23T12:49:08.343Z,6.57
2017-08-23T12:51:36.247Z,5.33
2017-08-23T12:54:03.831Z,5.03
2017-08-23T12:56:31.555Z,4.50
2017-08-23T12:58:59.341Z,4.53
2017-08-23T13:01:27.686Z,4.83
2017-08-23T13:03:55.381Z,4.90
2017-08-23T13:06:23.399Z,4.50
2017-08-23T13:08:51.234Z,4.93
2017-08-23T13:11:18.854Z,5.07
2017-08-23T13:13:47.056Z,6.53
2017-08-23T13:16:14.623Z,5.23
2017-08-23T13:18:42.900Z,4.80
2017-08-23T13:21:11.175Z,4.60
2017-08-23T13:23:38.767Z,4.50
2017-08-23T13:26:06.304Z,4.13
2017-08-23T13:28:33.961Z,4.33
2017-08-23T13:31:01.456Z,5.10
2017-08-23T13:33:29.229Z,4.50
2017-08-23T13:35:57.078Z,5.80
2017-08-23T13:38:24.604Z,5.77
2017-08-23T13:40:52.942Z,4.97
2017-08-23T13:43:20.585Z,5.07
2017-08-23T13:45:48.195Z,5.13
2017-08-23T13:48:15.749Z,5.00
2017-08-23T13:50:43.229Z,5.47
2017-08-23T13:53:11.478Z,4.90
2017-08-23T13:55:39.039Z,6.10
2017-08-23T13:58:06.545Z,4.93
2017-08-23T14:00:34.176Z,5.20
2017-08-23T14:03:01.947Z,4.60
2017-08-23T14:05:30.335Z,4.37
2017-08-23T14:07:58.593Z,5.00
2017-08-23T14:10:26.207Z,4.80
2017-08-23T14:12:53.996Z,4.63
2017-08-23T14:15:22.603Z,4.33
2017-08-23T14:17:50.127Z,4.93
2017-08-23T14:20:17.628Z,4.90
2017-08-23T14:22:45.168Z,5.50
2017-08-23T14:25:12.719Z,5.90
2017-08-23T14:27:40.403Z,5.27
2017-08-23T14:30:08.045Z,5.27
2017-08-23T14:32:35.593Z,4.93
2017-08-23T14:35:03.419Z,5.17
2017-08-23T14:37:31.033Z,4.40
2017-08-23T14:39:58.896Z,4.57
2017-08-23T14:42:26.560Z,5.90
2017-08-23T14:44:54.137Z,5.17
2017-08-23T14:47:22.470Z,5.10
2017-08-23T14:49:50.041Z,5.43
2017-08-23T14:52:17.507Z,5.77
2017-08-23T14:54:45.074Z,5.00
2017-08-23T14:57:12.550Z,5.10
2017-08-23T14:59:40.165Z,5.50
2017-08-23T15:02:07.767Z,5.33
2017-08-23T15:04:35.251Z,4.50
2017-08-23T15:07:02.815Z,4.50
2017-08-23T15:09:30.555Z,4.70
2017-08-23T15:11:58.174Z,6.17
2017-08-23T15:14:25.751Z,5.70
2017-08-23T15:16:53.612Z,4.60
2017-08-23T15:19:21.917Z,6.20
2017-08-23T15:21:49.491Z,5.97
2017-08-23T15:24:17.155Z,5.90
2017-08-23T15:26:45.036Z,6.70
2017-08-23T15:29:12.667Z,6.20
2017-08-23T15:31:40.307Z,5.73
2017-08-23T15:34:08.111Z,4.90
2017-08-23T15:36:36.607Z,4.93
2017-08-23T15:39:05.085Z,7.23
2017-08-23T15:41:32.607Z,5.47
2017-08-23T15:44:00.162Z,4.53
2017-08-23T15:46:27.753Z,4.27
2017-08-23T15:48:56.115Z,3.83
2017-08-23T15:51:24.017Z,6.37
2017-08-23T15:53:51.560Z,5.70
2017-08-23T15:56:19.274Z,6.10
2017-08-23T15:58:46.868Z,5.17
2017-08-23T16:01:15.355Z,7.00
2017-08-23T16:03:43.024Z,4.17
2017-08-23T16:06:10.566Z,4.90
2017-08-23T16:08:38.222Z,5.67
2017-08-23T16:11:05.968Z,7.10
2017-08-23T16:13:47.818Z,5.40
2017-08-23T16:16:15.440Z,5.70
2017-08-23T16:18:42.984Z,6.30
2017-08-23T16:21:10.786Z,6.57
2017-08-23T16:23:38.351Z,5.43
2017-08-23T16:26:05.971Z,7.20
2017-08-23T16:28:33.551Z,6.40
2017-08-23T16:31:01.132Z,20.80
2017-08-23T16:33:28.908Z,7.90
2017-08-23T16:35:56.679Z,7.80
2017-08-23T16:38:25.013Z,5.90
2017-08-23T16:40:53.421Z,5.50
2017-08-23T16:43:22.012Z,5.77
2017-08-23T16:45:50.343Z,8.37
2017-08-23T16:48:17.960Z,6.00
2017-08-23T16:50:45.612Z,7.50
2017-08-23T16:53:13.170Z,5.50
2017-08-23T16:55:40.703Z,5.00
2017-08-23T16:58:08.244Z,6.47
2017-08-23T17:00:36.061Z,6.43
2017-08-23T17:03:03.721Z,7.53
2017-08-23T17:05:31.689Z,10.33
2017-08-23T17:07:59.254Z,8.37
2017-08-23T17:10:26.951Z,9.20
2017-08-23T17:12:54.751Z,10.53
2017-08-23T17:15:23.027Z,7.87
2017-08-23T17:17:50.498Z,5.80
2017-08-23T17:20:18.188Z,8.10
2017-08-23T17:22:45.733Z,6.00
2017-08-23T17:25:13.400Z,6.40
2017-08-23T17:27:41.010Z,6.00
2017-08-23T17:30:08.604Z,5.90
2017-08-23T17:32:36.465Z,5.30
2017-08-23T17:35:04.039Z,5.10
2017-08-23T17:37:32.526Z,5.00
2017-08-23T17:40:00.031Z,4.90
2017-08-23T17:42:27.715Z,6.23
2017-08-23T17:44:56.129Z,5.27
2017-08-23T17:47:23.639Z,5.70
2017-08-23T17:49:51.230Z,7.07
2017-08-23T17:52:18.953Z,7.60
2017-08-23T17:54:46.438Z,7.30
2017-08-23T17:57:14.136Z,6.17
2017-08-23T17:59:41.799Z,5.50
2017-08-23T18:02:09.867Z,7.13
2017-08-23T18:04:38.199Z,7.53
2017-08-23T18:07:05.965Z,10.57
2017-08-23T18:09:33.467Z,8.03
2017-08-23T18:12:01.232Z,8.13
2017-08-23T18:14:28.844Z,7.40
2017-08-23T18:16:56.750Z,7.57
2017-08-23T18:19:24.269Z,10.13
2017-08-23T18:21:51.777Z,5.70
2017-08-23T18:24:19.451Z,7.50
2017-08-23T18:26:47.271Z,7.43
2017-08-23T18:29:15.186Z,6.97
2017-08-23T18:31:43.300Z,8.77
2017-08-23T19:55:35.026Z,10.90
2017-08-23T19:58:02.538Z,9.93
2017-08-23T20:00:30.008Z,9.83
2017-08-23T20:02:57.497Z,9.10
2017-08-23T20:05:25.026Z,7.60
2017-08-23T20:07:52.821Z,11.17
2017-08-23T20:10:21.209Z,11.50
2017-08-23T20:12:48.872Z,10.50
2017-08-23T20:15:17.150Z,11.00
2017-08-23T20:17:44.780Z,10.63
2017-08-23T20:20:12.263Z,10.40
2017-08-23T20:22:39.777Z,10.20
2017-08-23T20:25:07.274Z,10.77
2017-08-23T20:27:34.919Z,11.53
2017-08-23T20:30:02.450Z,8.63
2017-08-23T20:32:29.974Z,9.37
2017-08-23T20:34:57.417Z,9.87
2017-08-23T20:37:25.664Z,10.63
2017-08-23T20:39:53.228Z,10.70
2017-08-23T20:42:21.033Z,10.60
2017-08-23T20:44:48.479Z,10.70
2017-08-23T20:47:16.767Z,10.90
2017-08-23T20:49:44.295Z,10.20
2017-08-23T20:52:11.938Z,8.53
2017-08-23T20:54:39.478Z,8.93
2017-08-23T20:57:06.956Z,7.33
2017-08-23T20:59:34.518Z,7.90
2017-08-23T21:02:02.125Z,8.00
2017-08-23T21:04:30.363Z,7.80
2017-08-23T21:06:57.952Z,7.27
2017-08-23T21:09:26.275Z,8.40
2017-08-23T21:11:53.784Z,7.80
2017-08-23T21:14:21.300Z,8.13
2017-08-23T21:16:48.815Z,8.07
2017-08-23T21:19:16.326Z,7.67
2017-08-23T21:21:43.804Z,8.27
2017-08-23T21:24:12.141Z,7.70
2017-08-23T21:26:39.652Z,7.77
2017-08-23T21:29:07.260Z,7.93
2017-08-23T21:31:34.766Z,8.07
2017-08-23T21:34:02.239Z,8.00
2017-08-23T21:36:30.467Z,8.40
2017-08-23T21:38:57.948Z,10.90
2017-08-23T21:41:25.388Z,7.90
2017-08-23T21:43:52.932Z,8.43
2017-08-23T21:46:20.500Z,7.23
2017-08-23T21:48:48.001Z,8.00
2017-08-23T21:51:15.628Z,7.00
2017-08-23T21:53:43.229Z,6.80
2017-08-23T21:56:10.853Z,6.63
2017-08-23T21:58:38.505Z,7.10
2017-08-23T22:01:06.525Z,7.90
2017-08-23T22:03:34.075Z,7.20
2017-08-23T22:06:01.561Z,7.00
2017-08-23T22:08:29.122Z,7.10
2017-08-23T22:10:56.607Z,6.47
2017-08-23T22:13:24.261Z,7.00
2017-08-23T22:15:51.802Z,7.30
2017-08-23T22:18:20.046Z,7.33
2017-08-23T22:20:47.742Z,8.00
2017-08-23T22:23:15.423Z,7.13
2017-08-23T22:25:43.026Z,6.90
2017-08-23T22:28:10.795Z,6.50
2017-08-23T22:30:38.471Z,6.90
2017-08-23T22:33:06.955Z,6.43
2017-08-23T22:35:34.631Z,6.70
2017-08-23T22:38:02.520Z,5.97
2017-08-23T22:40:30.831Z,6.70
2017-08-23T22:42:58.712Z,6.97
2017-08-23T22:45:27.160Z,8.07
2017-08-23T22:47:54.758Z,7.87
2017-08-23T22:50:22.503Z,7.67
2017-08-23T22:52:50.100Z,8.20
2017-08-23T22:55:18.608Z,7.90
2017-08-23T22:57:46.796Z,6.77
2017-08-23T23:00:14.389Z,6.03
2017-08-23T23:02:41.864Z,7.30
2017-08-23T23:05:10.280Z,6.00
2017-08-23T23:07:38.016Z,6.30
2017-08-23T23:10:05.490Z,6.47
2017-08-23T23:12:32.982Z,5.60
2017-08-23T23:15:00.488Z,6.30
2017-08-23T23:17:28.493Z,6.60
2017-08-23T23:19:56.090Z,6.10
2017-08-23T23:22:23.731Z,6.27
2017-08-23T23:24:51.196Z,6.20
2017-08-23T23:27:18.703Z,5.50
2017-08-23T23:29:46.245Z,5.60
2017-08-23T23:32:14.557Z,6.03
2017-08-23T23:34:42.046Z,5.60
2017-08-23T23:37:09.656Z,6.43
2017-08-23T23:39:37.172Z,6.47
2017-08-23T23:42:04.744Z,6.63
2017-08-23T23:44:32.304Z,7.90
2017-08-23T23:46:59.931Z,7.37
2017-08-23T23:49:27.555Z,7.17
2017-08-23T23:51:55.143Z,6.30
2017-08-23T23:54:22.662Z,6.40
2017-08-23T23:56:50.154Z,6.60
2017-08-23T23:59:17.686Z,7.10
